createdAt,value
2023-02-24T00:01:14.552Z,11.48
2023-02-24T00:03:41.236Z,11.42
2023-02-24T00:06:07.860Z,11.43
2023-02-24T00:08:34.576Z,11.39
2023-02-24T00:11:01.201Z,11.45
2023-02-24T00:13:27.899Z,11.52
2023-02-24T00:15:54.650Z,11.50
2023-02-24T00:18:21.368Z,11.35
2023-02-24T01:01:53.218Z,10.45
2023-02-24T01:04:20.081Z,10.46
2023-02-24T01:06:47.106Z,10.36
2023-02-24T01:09:13.856Z,10.39
2023-02-24T01:25:22.083Z,10.24
2023-02-24T01:27:48.835Z,10.32
2023-02-24T01:30:16.410Z,10.25
2023-02-24T01:32:43.440Z,10.33
2023-02-24T01:35:10.261Z,10.35
2023-02-24T01:37:36.947Z,10.32
2023-02-24T01:40:03.737Z,10.28
2023-02-24T01:42:30.465Z,10.30
2023-02-24T01:44:57.213Z,10.20
2023-02-24T01:47:23.933Z,10.08
2023-02-24T01:49:50.624Z,10.09
2023-02-24T01:52:17.404Z,10.16
2023-02-24T01:54:44.105Z,9.91
2023-02-24T01:57:10.770Z,10.07
2023-02-24T01:59:37.526Z,10.19
2023-02-24T02:02:04.421Z,10.27
2023-02-24T02:04:31.410Z,10.20
2023-02-24T02:06:58.169Z,10.34
2023-02-24T02:09:24.819Z,10.30
2023-02-24T02:11:51.526Z,10.32
2023-02-24T02:14:18.271Z,10.31
2023-02-24T02:16:44.947Z,10.23
2023-02-24T02:19:11.641Z,10.18
2023-02-24T02:21:38.316Z,10.18
2023-02-24T02:24:05.015Z,10.24
2023-02-24T02:26:31.817Z,10.37
2023-02-24T02:28:58.494Z,10.37
2023-02-24T02:31:25.719Z,10.36
2023-02-24T02:33:52.797Z,10.24
2023-02-24T02:36:19.545Z,10.24
2023-02-24T02:38:46.211Z,10.24
2023-02-24T02:41:13.006Z,10.37
2023-02-24T02:43:39.707Z,10.42
2023-02-24T02:46:06.425Z,10.44
2023-02-24T02:48:33.243Z,10.40
2023-02-24T02:50:59.925Z,10.20
2023-02-24T02:53:26.582Z,10.19
2023-02-24T02:55:53.321Z,10.37
2023-02-24T02:58:20.034Z,10.07
2023-02-24T03:00:46.830Z,9.87
2023-02-24T03:03:13.524Z,9.85
2023-02-24T03:05:40.260Z,10.04
2023-02-24T03:08:06.944Z,10.01
2023-02-24T03:10:33.647Z,10.05
2023-02-24T03:13:00.367Z,10.20
2023-02-24T03:15:27.047Z,10.20
2023-02-24T03:17:53.809Z,9.99
2023-02-24T03:20:20.606Z,10.10
2023-02-24T03:22:47.386Z,10.29
2023-02-24T03:25:14.042Z,10.38
2023-02-24T03:27:40.855Z,10.23
2023-02-24T03:30:07.603Z,10.23
2023-02-24T03:32:34.367Z,10.31
2023-02-24T03:35:01.136Z,10.27
2023-02-24T03:37:27.902Z,10.33
2023-02-24T03:39:54.700Z,10.29
2023-02-24T03:42:21.380Z,10.03
2023-02-24T03:44:48.147Z,10.05
2023-02-24T03:47:14.921Z,10.17
2023-02-24T03:49:41.647Z,10.16
2023-02-24T03:52:08.450Z,10.42
2023-02-24T03:54:35.153Z,10.32
2023-02-24T03:57:01.944Z,10.42
2023-02-24T03:59:28.671Z,10.04
2023-02-24T04:01:55.405Z,9.85
2023-02-24T04:04:22.167Z,10.17
2023-02-24T04:06:48.853Z,10.26
2023-02-24T04:09:15.599Z,9.99
2023-02-24T04:11:42.309Z,9.93
2023-02-24T04:14:08.958Z,10.05
2023-02-24T04:16:35.658Z,9.93
2023-02-24T04:19:02.297Z,10.24
2023-02-24T04:21:28.988Z,10.26
2023-02-24T04:23:55.664Z,10.30
2023-02-24T04:26:22.346Z,10.29
2023-02-24T04:28:48.957Z,10.09
2023-02-24T04:31:15.671Z,10.17
2023-02-24T04:33:42.381Z,10.35
2023-02-24T04:36:09.031Z,10.28
2023-02-24T04:38:35.791Z,10.04
2023-02-24T04:41:02.482Z,9.92
2023-02-24T04:43:29.099Z,9.95
2023-02-24T04:45:55.760Z,10.05
2023-02-24T04:48:22.626Z,9.83
2023-02-24T04:50:49.350Z,9.75
2023-02-24T04:53:15.995Z,9.77
2023-02-24T04:55:42.679Z,10.00
2023-02-24T04:58:09.387Z,10.16
2023-02-24T05:00:36.121Z,10.11
2023-02-24T05:03:02.756Z,10.09
2023-02-24T05:05:29.418Z,10.17
2023-02-24T05:07:56.106Z,10.13
2023-02-24T05:10:22.748Z,9.85
2023-02-24T05:12:49.350Z,9.69
2023-02-24T05:15:15.998Z,9.78
2023-02-24T05:17:42.596Z,9.84
2023-02-24T05:20:09.308Z,9.93
2023-02-24T05:22:36.022Z,10.01
2023-02-24T05:25:02.688Z,10.07
2023-02-24T05:27:29.338Z,9.82
2023-02-24T05:29:56.008Z,9.77
2023-02-24T05:32:22.890Z,10.18
2023-02-24T05:34:49.628Z,10.09
2023-02-24T05:37:16.340Z,9.76
2023-02-24T05:39:43.005Z,10.00
2023-02-24T05:42:09.662Z,9.94
2023-02-24T05:44:36.287Z,10.10
2023-02-24T05:47:03.113Z,9.89
2023-02-24T05:49:29.846Z,10.07
2023-02-24T05:51:56.901Z,9.92
2023-02-24T05:54:23.524Z,9.87
2023-02-24T05:56:50.163Z,10.10
2023-02-24T05:59:16.825Z,9.91
2023-02-24T06:01:43.550Z,9.99
2023-02-24T06:04:10.241Z,10.10
2023-02-24T06:06:36.863Z,10.12
2023-02-24T06:09:03.581Z,10.32
2023-02-24T06:11:30.247Z,10.42
2023-02-24T06:13:56.840Z,10.44
2023-02-24T06:16:23.493Z,10.31
2023-02-24T06:18:50.139Z,10.41
2023-02-24T06:21:16.870Z,10.32
2023-02-24T06:23:43.527Z,9.62
2023-02-24T06:26:10.181Z,10.06
2023-02-24T06:28:36.844Z,10.01
2023-02-24T06:31:03.463Z,9.94
2023-02-24T06:33:30.399Z,9.74
2023-02-24T06:35:57.029Z,9.52
2023-02-24T06:38:23.675Z,9.59
2023-02-24T06:40:50.332Z,10.11
2023-02-24T06:43:17.282Z,10.09
2023-02-24T06:45:44.029Z,10.25
2023-02-24T06:48:10.671Z,10.08
2023-02-24T06:50:37.323Z,10.44
2023-02-24T06:53:04.003Z,10.75
2023-02-24T06:55:30.680Z,10.94
2023-02-24T06:57:57.381Z,10.76
2023-02-24T07:00:24.061Z,11.07
2023-02-24T07:02:50.672Z,11.21
2023-02-24T07:05:17.484Z,11.28
2023-02-24T07:07:44.137Z,11.25
2023-02-24T07:10:10.743Z,11.19
2023-02-24T07:12:37.428Z,11.52
2023-02-24T07:15:04.128Z,11.48
2023-02-24T07:17:30.746Z,11.65
2023-02-24T07:19:57.469Z,11.47
2023-02-24T07:22:24.153Z,11.60
2023-02-24T07:24:50.850Z,11.79
2023-02-24T07:27:17.528Z,12.04
2023-02-24T07:29:44.199Z,12.17
2023-02-24T07:32:11.061Z,12.24
2023-02-24T07:34:37.830Z,12.29
2023-02-24T07:37:04.519Z,12.27
2023-02-24T07:39:31.261Z,12.15
2023-02-24T07:41:59.740Z,11.96
2023-02-24T07:44:26.396Z,12.01
2023-02-24T07:46:53.066Z,12.17
2023-02-24T07:49:19.781Z,12.44
2023-02-24T07:51:46.479Z,12.65
2023-02-24T07:54:13.320Z,12.70
2023-02-24T07:56:40.063Z,12.55
2023-02-24T07:59:06.692Z,12.89
2023-02-24T08:01:33.354Z,13.09
2023-02-24T08:03:59.982Z,13.26
2023-02-24T08:06:26.650Z,13.49
2023-02-24T08:08:53.288Z,13.44
2023-02-24T08:11:20.242Z,13.66
2023-02-24T08:13:46.958Z,13.95
2023-02-24T08:16:13.688Z,14.03
2023-02-24T08:18:40.354Z,14.11
2023-02-24T08:21:06.982Z,14.10
2023-02-24T08:23:33.612Z,14.24
2023-02-24T08:26:00.380Z,14.30
2023-02-24T08:28:27.096Z,14.49
2023-02-24T08:30:53.897Z,14.69
2023-02-24T08:33:20.721Z,14.64
2023-02-24T08:35:47.407Z,14.95
2023-02-24T08:38:14.059Z,14.94
2023-02-24T08:40:40.699Z,14.95
2023-02-24T08:43:07.445Z,14.74
2023-02-24T08:45:34.087Z,14.91
2023-02-24T08:48:00.782Z,15.13
2023-02-24T08:50:27.525Z,15.38
2023-02-24T08:52:54.285Z,15.48
2023-02-24T08:55:20.958Z,15.76
2023-02-24T08:57:47.629Z,15.68
2023-02-24T09:00:14.272Z,15.91
2023-02-24T09:02:40.969Z,15.92
2023-02-24T09:05:07.716Z,15.75
2023-02-24T09:07:34.389Z,15.65
2023-02-24T09:10:01.050Z,16.01
2023-02-24T09:12:27.681Z,15.75
2023-02-24T09:14:54.378Z,15.95
2023-02-24T09:17:21.090Z,16.26
2023-02-24T09:19:47.797Z,16.60
2023-02-24T09:22:21.294Z,16.63
2023-02-24T09:24:48.313Z,16.66
2023-02-24T09:27:14.971Z,16.19
2023-02-24T09:29:41.657Z,16.57
2023-02-24T09:32:09.457Z,16.44
2023-02-24T09:34:36.171Z,16.37
2023-02-24T09:37:02.930Z,16.73
2023-02-24T09:39:29.843Z,17.04
2023-02-24T09:41:56.599Z,16.82
2023-02-24T09:44:23.305Z,16.92
2023-02-24T09:46:50.133Z,17.38
2023-02-24T09:49:16.775Z,17.48
2023-02-24T09:51:43.463Z,17.58
2023-02-24T09:54:10.163Z,17.53
2023-02-24T09:56:36.844Z,17.04
2023-02-24T09:59:03.529Z,17.09
2023-02-24T10:01:30.273Z,17.18
2023-02-24T10:03:56.982Z,17.54
2023-02-24T10:06:23.669Z,17.87
2023-02-24T10:08:50.309Z,18.06
2023-02-24T10:11:16.938Z,18.31
2023-02-24T10:13:43.586Z,18.52
2023-02-24T10:16:10.256Z,18.36
2023-02-24T10:18:36.934Z,18.08
2023-02-24T10:21:03.757Z,18.05
2023-02-24T10:23:30.457Z,18.33
2023-02-24T10:25:57.128Z,18.55
2023-02-24T10:28:23.795Z,17.97
2023-02-24T10:30:50.529Z,18.32
2023-02-24T10:33:17.248Z,18.62
2023-02-24T10:35:43.966Z,18.87
2023-02-24T10:38:10.640Z,19.02
2023-02-24T10:40:37.449Z,19.30
2023-02-24T10:43:04.100Z,18.59
2023-02-24T10:45:34.676Z,18.24
2023-02-24T10:48:01.645Z,18.43
2023-02-24T10:50:29.812Z,18.71
2023-02-24T10:52:58.681Z,18.63
2023-02-24T10:55:25.532Z,18.71
2023-02-24T10:57:58.964Z,18.83
2023-02-24T11:00:25.978Z,18.13
2023-02-24T11:02:52.677Z,18.05
2023-02-24T11:05:19.372Z,18.42
2023-02-24T11:07:46.019Z,18.17
2023-02-24T11:10:12.739Z,18.48
2023-02-24T11:12:39.358Z,18.71
2023-02-24T11:15:06.072Z,18.75
2023-02-24T11:17:32.749Z,18.88
2023-02-24T11:19:59.454Z,18.91
2023-02-24T11:22:26.188Z,18.36
2023-02-24T11:24:52.829Z,18.39
2023-02-24T11:27:19.553Z,17.93
2023-02-24T11:29:46.220Z,17.86
2023-02-24T11:32:15.225Z,18.03
2023-02-24T11:34:42.255Z,18.25
2023-02-24T11:37:08.870Z,18.08
2023-02-24T11:39:35.470Z,18.57
2023-02-24T11:42:02.093Z,18.15
2023-02-24T11:44:28.801Z,18.36
2023-02-24T11:46:55.415Z,18.04
2023-02-24T11:49:22.136Z,18.07
2023-02-24T11:51:48.768Z,18.05
2023-02-24T11:54:15.472Z,19.04
2023-02-24T11:56:42.096Z,19.81
2023-02-24T11:59:08.831Z,19.53
2023-02-24T12:01:35.555Z,19.48
2023-02-24T12:04:02.187Z,19.23
2023-02-24T12:06:28.897Z,19.45
2023-02-24T12:08:55.579Z,19.95
2023-02-24T12:11:22.656Z,19.94
2023-02-24T12:13:49.793Z,20.52
2023-02-24T12:16:16.540Z,19.99
2023-02-24T12:18:43.218Z,20.35
2023-02-24T12:21:09.844Z,20.99
2023-02-24T12:23:38.377Z,20.88
2023-02-24T12:26:05.014Z,20.99
2023-02-24T12:28:31.694Z,20.06
2023-02-24T12:30:58.420Z,18.73
2023-02-24T12:33:25.145Z,19.49
2023-02-24T12:35:51.826Z,19.35
2023-02-24T12:38:18.600Z,18.79
2023-02-24T12:40:45.333Z,18.27
2023-02-24T12:43:12.013Z,18.74
2023-02-24T12:45:38.770Z,18.73
2023-02-24T12:48:05.500Z,19.39
2023-02-24T12:50:32.245Z,19.48
2023-02-24T12:52:59.019Z,19.04
2023-02-24T12:55:25.691Z,18.71
2023-02-24T12:57:52.372Z,19.65
2023-02-24T13:00:18.995Z,19.51
2023-02-24T13:02:45.610Z,19.71
2023-02-24T13:05:12.332Z,20.34
2023-02-24T13:07:38.994Z,20.87
2023-02-24T13:10:05.752Z,20.18
2023-02-24T13:12:32.522Z,19.09
2023-02-24T13:14:59.174Z,19.60
2023-02-24T13:17:25.928Z,19.54
2023-02-24T13:19:52.612Z,19.93
2023-02-24T13:22:19.285Z,20.18
2023-02-24T13:24:46.021Z,19.84
2023-02-24T13:27:12.688Z,20.04
2023-02-24T13:29:39.373Z,19.71
2023-02-24T13:32:06.145Z,20.17
2023-02-24T13:34:32.878Z,20.44
2023-02-24T13:36:59.540Z,20.95
2023-02-24T13:39:26.209Z,19.83
2023-02-24T13:41:52.957Z,19.59
2023-02-24T13:44:19.606Z,18.98
2023-02-24T13:46:46.325Z,18.85
2023-02-24T13:49:12.942Z,19.59
2023-02-24T13:51:39.613Z,20.22
2023-02-24T13:54:06.297Z,20.70
2023-02-24T13:56:32.929Z,20.78
2023-02-24T13:58:59.575Z,21.45
2023-02-24T14:01:26.550Z,21.99
2023-02-24T14:03:53.338Z,21.06
2023-02-24T14:06:20.160Z,20.03
2023-02-24T14:08:46.995Z,19.56
2023-02-24T14:11:13.612Z,19.38
2023-02-24T14:13:40.256Z,20.06
2023-02-24T14:16:07.044Z,20.69
2023-02-24T14:18:33.720Z,21.42
2023-02-24T14:21:00.431Z,22.01
2023-02-24T14:23:27.084Z,22.11
2023-02-24T14:25:53.735Z,22.34
2023-02-24T14:28:20.366Z,22.51
2023-02-24T14:30:47.058Z,22.81
2023-02-24T14:33:13.821Z,22.28
2023-02-24T14:35:40.495Z,22.23
2023-02-24T14:38:07.109Z,22.69
2023-02-24T14:40:33.913Z,22.48
2023-02-24T14:43:00.608Z,21.40
2023-02-24T14:45:27.236Z,20.87
2023-02-24T14:47:53.929Z,20.91
2023-02-24T14:50:20.564Z,21.36
2023-02-24T14:52:47.312Z,21.39
2023-02-24T14:55:13.972Z,21.62
2023-02-24T14:57:40.577Z,20.88
2023-02-24T15:00:07.260Z,20.05
2023-02-24T15:02:33.906Z,19.90
2023-02-24T15:05:00.848Z,20.02
2023-02-24T15:07:27.992Z,20.06
2023-02-24T15:09:54.704Z,20.77
2023-02-24T15:12:21.318Z,19.72
2023-02-24T15:14:48.111Z,20.04
2023-02-24T15:17:14.767Z,19.69
2023-02-24T15:19:41.383Z,19.74
2023-02-24T15:22:08.071Z,19.80
2023-02-24T15:24:34.672Z,19.17
2023-02-24T15:27:01.286Z,19.29
2023-02-24T15:29:27.985Z,19.08
2023-02-24T15:31:54.853Z,18.89
2023-02-24T15:34:21.596Z,19.25
2023-02-24T15:36:48.250Z,19.51
2023-02-24T15:39:14.943Z,19.13
2023-02-24T15:41:41.594Z,18.09
2023-02-24T15:44:08.258Z,17.90
2023-02-24T15:46:34.964Z,17.69
2023-02-24T15:49:01.675Z,18.09
2023-02-24T15:51:28.284Z,17.82
2023-02-24T15:53:54.992Z,18.25
2023-02-24T15:56:21.860Z,18.47
2023-02-24T15:58:48.667Z,18.61
2023-02-24T16:01:15.426Z,17.39
2023-02-24T16:03:42.210Z,17.07
2023-02-24T16:06:10.219Z,17.16
2023-02-24T16:08:38.284Z,17.41
2023-02-24T16:11:04.959Z,18.15
2023-02-24T16:13:31.603Z,18.12
2023-02-24T16:15:58.291Z,18.07
2023-02-24T16:18:24.928Z,17.73
2023-02-24T16:20:51.627Z,17.85
2023-02-24T16:23:18.301Z,17.80
2023-02-24T16:25:44.991Z,18.27
2023-02-24T16:28:11.719Z,17.61
2023-02-24T16:30:38.457Z,17.54
2023-02-24T16:33:05.304Z,17.88
2023-02-24T16:35:31.992Z,17.61
2023-02-24T16:37:58.684Z,17.90
2023-02-24T16:40:25.337Z,16.95
2023-02-24T16:42:51.968Z,16.89
2023-02-24T16:45:18.563Z,16.98
2023-02-24T16:47:45.209Z,17.29
2023-02-24T16:50:11.841Z,17.02
2023-02-24T16:52:38.500Z,16.87
2023-02-24T16:55:05.139Z,17.05
2023-02-24T16:57:31.798Z,17.06
2023-02-24T16:59:58.443Z,16.81
2023-02-24T17:02:25.159Z,16.80
2023-02-24T17:04:51.841Z,17.13
2023-02-24T17:07:18.515Z,17.17
2023-02-24T17:09:45.125Z,16.22
2023-02-24T17:12:11.891Z,16.45
2023-02-24T17:14:38.992Z,16.64
2023-02-24T17:17:05.677Z,15.83
2023-02-24T17:19:32.394Z,15.57
2023-02-24T17:21:59.004Z,15.40
2023-02-24T17:24:25.666Z,15.53
2023-02-24T17:26:52.444Z,15.89
2023-02-24T17:29:19.119Z,16.33
2023-02-24T17:31:45.916Z,15.99
2023-02-24T17:34:12.802Z,15.69
2023-02-24T17:36:39.522Z,15.71
2023-02-24T17:39:06.215Z,15.81
2023-02-24T17:41:32.929Z,16.05
2023-02-24T17:43:59.554Z,16.00
2023-02-24T17:46:26.500Z,15.87
2023-02-24T17:48:53.283Z,15.87
2023-02-24T17:51:19.939Z,15.90
2023-02-24T17:53:46.834Z,15.87
2023-02-24T17:56:13.433Z,16.00
2023-02-24T17:58:40.254Z,15.88
2023-02-24T18:01:06.960Z,15.70
2023-02-24T18:03:33.680Z,15.69
2023-02-24T18:06:00.397Z,15.62
2023-02-24T18:08:27.095Z,15.96
2023-02-24T18:10:53.690Z,15.91
2023-02-24T18:13:20.378Z,15.30
2023-02-24T18:15:47.084Z,15.45
2023-02-24T18:18:13.773Z,15.97
2023-02-24T18:20:40.395Z,16.23
2023-02-24T18:23:07.067Z,16.21
2023-02-24T18:25:33.721Z,16.21
2023-02-24T18:28:00.430Z,16.07
2023-02-24T18:30:27.204Z,15.86
2023-02-24T18:32:54.048Z,15.58
2023-02-24T18:35:20.806Z,15.69
2023-02-24T18:37:47.439Z,15.55
2023-02-24T18:40:14.091Z,15.44
2023-02-24T18:42:40.794Z,15.13
2023-02-24T18:45:07.517Z,14.81
2023-02-24T18:47:34.200Z,14.91
2023-02-24T18:50:00.838Z,15.05
2023-02-24T18:52:27.494Z,15.23
2023-02-24T18:54:54.165Z,15.09
2023-02-24T18:57:20.773Z,15.05
2023-02-24T18:59:47.441Z,14.78
2023-02-24T19:02:14.184Z,14.48
2023-02-24T19:04:40.887Z,15.06
2023-02-24T19:07:07.530Z,15.61
2023-02-24T19:09:34.164Z,15.88
2023-02-24T19:12:00.817Z,15.49
2023-02-24T19:14:27.480Z,15.42
2023-02-24T19:16:54.207Z,15.68
2023-02-24T19:19:23.564Z,15.82
2023-02-24T19:21:50.233Z,16.09
2023-02-24T19:24:16.952Z,15.99
2023-02-24T19:26:43.645Z,16.10
2023-02-24T19:29:10.266Z,15.95
2023-02-24T19:31:37.063Z,16.09
2023-02-24T19:34:03.799Z,16.06
2023-02-24T19:36:30.439Z,16.02
2023-02-24T19:38:57.137Z,14.88
2023-02-24T19:41:23.784Z,15.28
2023-02-24T19:43:50.482Z,15.22
2023-02-24T19:46:17.201Z,15.06
2023-02-24T19:48:44.549Z,14.49
2023-02-24T19:51:11.297Z,14.75
2023-02-24T19:53:37.954Z,15.11
2023-02-24T19:56:04.655Z,15.59
2023-02-24T19:58:31.348Z,15.66
2023-02-24T20:00:58.075Z,15.94
2023-02-24T20:03:24.749Z,15.86
2023-02-24T20:05:51.394Z,15.74
2023-02-24T20:08:18.090Z,15.72
2023-02-24T20:10:44.742Z,15.51
2023-02-24T20:13:11.413Z,15.54
2023-02-24T20:15:38.059Z,15.36
2023-02-24T20:18:04.761Z,15.27
2023-02-24T20:20:31.436Z,15.44
2023-02-24T20:22:58.106Z,15.27
2023-02-24T20:25:24.771Z,15.13
2023-02-24T20:27:53.774Z,15.35
2023-02-24T20:30:20.435Z,15.00
2023-02-24T20:32:47.228Z,15.21
2023-02-24T20:35:17.041Z,15.32
2023-02-24T20:37:43.723Z,14.45
2023-02-24T20:40:10.354Z,15.07
2023-02-24T20:42:37.024Z,14.44
2023-02-24T20:45:03.722Z,14.97
2023-02-24T20:47:30.407Z,15.04
2023-02-24T20:49:57.098Z,15.05
2023-02-24T20:52:23.746Z,15.01
2023-02-24T20:54:50.443Z,14.87
2023-02-24T20:57:17.073Z,14.89
2023-02-24T20:59:49.290Z,15.42
2023-02-24T21:02:21.381Z,15.33
2023-02-24T21:04:48.107Z,15.37
2023-02-24T21:07:14.751Z,14.74
2023-02-24T21:09:43.829Z,14.39
2023-02-24T21:12:10.482Z,14.59
2023-02-24T21:14:37.164Z,14.71
2023-02-24T21:17:03.844Z,14.91
2023-02-24T21:19:30.510Z,15.31
2023-02-24T21:21:57.168Z,15.71
2023-02-24T21:24:23.825Z,15.60
2023-02-24T21:26:50.499Z,15.10
2023-02-24T21:29:17.204Z,14.90
2023-02-24T21:31:44.082Z,15.20
2023-02-24T21:34:10.839Z,15.31
2023-02-24T21:36:37.602Z,15.13
2023-02-24T21:39:04.294Z,14.81
2023-02-24T21:41:30.956Z,14.55
2023-02-24T21:43:57.665Z,13.86
2023-02-24T21:46:24.749Z,13.76
2023-02-24T21:48:51.674Z,13.65
2023-02-24T21:51:18.389Z,13.90
2023-02-24T21:53:45.099Z,13.75
2023-02-24T21:56:11.800Z,13.91
2023-02-24T21:58:38.474Z,14.01
2023-02-24T22:01:05.135Z,13.76
2023-02-24T22:03:31.844Z,13.64
2023-02-24T22:05:58.585Z,13.51
2023-02-24T22:08:25.309Z,13.04
2023-02-24T22:10:51.966Z,13.01
2023-02-24T22:13:18.619Z,12.82
2023-02-24T22:15:45.323Z,12.71
2023-02-24T22:18:12.026Z,12.24
2023-02-24T22:20:38.661Z,12.55
2023-02-24T22:23:05.333Z,12.39
2023-02-24T22:25:31.987Z,12.49
2023-02-24T22:27:58.804Z,12.37
2023-02-24T22:30:25.496Z,12.26
2023-02-24T22:32:52.210Z,12.29
2023-02-24T22:35:18.915Z,12.28
2023-02-24T22:37:45.588Z,12.08
2023-02-24T22:40:12.266Z,12.18
2023-02-24T22:42:38.907Z,12.16
2023-02-24T22:45:12.898Z,12.19
2023-02-24T22:47:39.524Z,12.24
2023-02-24T22:50:06.278Z,11.93
2023-02-24T22:52:32.904Z,11.76
2023-02-24T22:54:59.578Z,11.68
2023-02-24T22:57:26.265Z,11.53
2023-02-24T22:59:52.980Z,11.64
2023-02-24T23:02:19.726Z,11.60
2023-02-24T23:04:46.425Z,11.54
2023-02-24T23:07:13.098Z,11.61
2023-02-24T23:09:39.745Z,11.75
2023-02-24T23:12:06.412Z,11.83
2023-02-24T23:14:33.054Z,11.42
2023-02-24T23:16:59.740Z,11.33
2023-02-24T23:19:26.358Z,11.46
2023-02-24T23:21:53.099Z,11.41
2023-02-24T23:24:19.856Z,11.27
2023-02-24T23:26:46.544Z,11.18
2023-02-24T23:29:13.164Z,11.06
2023-02-24T23:31:39.920Z,11.05
2023-02-24T23:34:06.638Z,11.18
2023-02-24T23:36:33.298Z,11.20
2023-02-24T23:38:59.969Z,11.10
2023-02-24T23:41:26.638Z,10.95
2023-02-24T23:43:53.394Z,10.78
2023-02-24T23:46:20.183Z,10.41
2023-02-24T23:48:47.294Z,10.52
2023-02-24T23:51:13.932Z,9.78
2023-02-24T23:53:40.629Z,9.31
2023-02-24T23:56:07.240Z,9.59
2023-02-24T23:58:33.943Z,9.96
